createdAt,value
2023-02-28T00:01:12.081Z,-1.69
2023-02-28T00:03:39.766Z,-1.92
2023-02-28T00:06:08.829Z,-1.95
2023-02-28T00:08:36.506Z,-2.04
2023-02-28T00:11:04.946Z,-2.12
2023-02-28T00:13:36.362Z,-1.82
2023-02-28T00:16:05.468Z,-1.98
2023-02-28T00:18:33.604Z,-2.01
2023-02-28T00:21:01.479Z,-1.90
2023-02-28T00:23:29.845Z,-1.76
2023-02-28T00:25:57.566Z,-1.90
2023-02-28T00:28:25.963Z,-1.94
2023-02-28T00:30:55.184Z,-2.03
2023-02-28T00:33:22.893Z,-2.09
2023-02-28T00:35:50.558Z,-2.10
2023-02-28T00:38:18.480Z,-2.12
2023-02-28T00:40:46.107Z,-2.15
2023-02-28T00:43:13.736Z,-2.15
2023-02-28T00:45:41.367Z,-2.08
2023-02-28T00:48:10.387Z,-1.92
2023-02-28T00:50:38.022Z,-1.94
2023-02-28T00:53:05.658Z,-2.03
2023-02-28T00:55:33.459Z,-2.01
2023-02-28T00:58:01.105Z,-2.03
2023-02-28T01:00:28.898Z,-1.93
2023-02-28T01:02:56.552Z,-1.93
2023-02-28T01:05:25.600Z,-1.65
2023-02-28T01:07:53.230Z,-1.75
2023-02-28T01:10:21.841Z,-1.75
2023-02-28T01:12:49.526Z,-1.66
2023-02-28T01:15:17.444Z,-1.62
2023-02-28T01:17:45.115Z,-1.61
2023-02-28T01:20:13.387Z,-1.61
2023-02-28T01:22:42.370Z,-1.61
2023-02-28T01:25:10.424Z,-1.55
2023-02-28T01:27:38.137Z,-1.51
2023-02-28T01:30:06.676Z,-1.55
2023-02-28T01:32:34.310Z,-1.78
2023-02-28T01:35:01.901Z,-1.70
2023-02-28T01:37:29.517Z,-1.66
2023-02-28T01:39:58.528Z,-1.73
2023-02-28T01:42:26.147Z,-1.75
2023-02-28T01:45:02.678Z,-1.59
2023-02-28T01:47:33.979Z,-1.63
2023-02-28T01:50:03.585Z,-1.66
2023-02-28T01:52:31.545Z,-1.80
2023-02-28T01:55:02.166Z,-1.80
2023-02-28T01:57:38.368Z,-1.89
2023-02-28T02:00:10.089Z,-1.94
2023-02-28T02:02:38.517Z,-2.03
2023-02-28T02:05:08.260Z,-2.06
2023-02-28T02:07:37.853Z,-2.19
2023-02-28T02:10:13.180Z,-2.18
2023-02-28T02:12:54.166Z,-2.29
2023-02-28T02:15:24.416Z,-2.28
2023-02-28T02:17:54.516Z,-2.62
2023-02-28T02:20:52.777Z,-2.69
2023-02-28T02:23:36.449Z,-2.77
2023-02-28T02:26:20.239Z,-2.72
2023-02-28T02:29:09.057Z,-2.56
2023-02-28T02:32:10.128Z,-2.81
2023-02-28T02:34:44.129Z,-2.76
2023-02-28T02:37:18.369Z,-2.75
2023-02-28T02:39:52.323Z,-2.83
2023-02-28T02:42:24.625Z,-2.82
2023-02-28T02:44:55.857Z,-2.82
2023-02-28T02:47:26.633Z,-2.91
2023-02-28T02:49:58.173Z,-2.89
2023-02-28T02:52:32.292Z,-2.91
2023-02-28T02:55:00.521Z,-3.03
2023-02-28T02:57:33.603Z,-3.04
2023-02-28T03:00:02.166Z,-3.04
2023-02-28T03:02:35.446Z,-3.09
2023-02-28T03:05:07.331Z,-3.11
2023-02-28T03:07:35.059Z,-2.94
2023-02-28T03:10:02.874Z,-3.13
2023-02-28T03:12:35.120Z,-3.13
2023-02-28T03:15:10.147Z,-3.19
2023-02-28T03:17:51.889Z,-3.28
2023-02-28T03:20:30.069Z,-3.24
2023-02-28T03:23:03.712Z,-3.28
2023-02-28T03:25:35.532Z,-3.28
2023-02-28T03:28:07.864Z,-3.18
2023-02-28T03:30:40.447Z,-3.16
2023-02-28T03:33:11.060Z,-3.21
2023-02-28T03:35:42.598Z,-3.27
2023-02-28T03:38:15.195Z,-3.31
2023-02-28T03:40:47.523Z,-3.28
2023-02-28T03:43:18.917Z,-3.30
2023-02-28T03:45:48.513Z,-3.18
2023-02-28T03:48:19.399Z,-3.33
2023-02-28T03:50:51.248Z,-3.27
2023-02-28T03:53:24.789Z,-3.38
2023-02-28T03:55:56.790Z,-3.32
2023-02-28T03:58:30.418Z,-3.21
2023-02-28T04:01:08.596Z,-3.19
2023-02-28T04:03:37.624Z,-3.32
2023-02-28T04:06:08.133Z,-3.15
2023-02-28T04:08:35.797Z,-3.31
2023-02-28T04:11:06.974Z,-3.37
2023-02-28T04:13:35.067Z,-3.29
2023-02-28T04:16:02.800Z,-3.29
2023-02-28T04:18:30.438Z,-3.25
2023-02-28T04:21:02.157Z,-3.22
2023-02-28T04:23:32.658Z,-3.21
2023-02-28T04:26:00.353Z,-3.29
2023-02-28T04:28:28.074Z,-3.35
2023-02-28T04:30:57.598Z,-3.11
2023-02-28T04:33:25.492Z,-3.40
2023-02-28T04:36:00.933Z,-3.23
2023-02-28T04:38:29.020Z,-3.27
2023-02-28T04:41:00.488Z,-3.15
2023-02-28T04:43:28.747Z,-3.22
2023-02-28T04:45:57.678Z,-3.25
2023-02-28T04:48:26.110Z,-3.13
2023-02-28T04:50:53.804Z,-3.03
2023-02-28T04:53:21.902Z,-3.15
2023-02-28T04:55:49.550Z,-3.21
2023-02-28T04:58:18.735Z,-3.29
2023-02-28T05:00:46.403Z,-3.39
2023-02-28T05:03:14.209Z,-3.24
2023-02-28T05:05:41.855Z,-3.23
2023-02-28T05:08:10.804Z,-3.36
2023-02-28T05:10:38.925Z,-3.35
2023-02-28T05:13:06.625Z,-3.44
2023-02-28T05:15:35.908Z,-3.32
2023-02-28T05:18:03.627Z,-3.35
2023-02-28T05:20:31.385Z,-3.13
2023-02-28T05:22:59.435Z,-3.33
2023-02-28T05:25:27.344Z,-3.12
2023-02-28T05:27:54.995Z,-3.38
2023-02-28T05:30:22.644Z,-3.35
2023-02-28T05:32:54.039Z,-3.43
2023-02-28T05:35:21.666Z,-3.36
2023-02-28T05:37:49.318Z,-3.52
2023-02-28T05:40:17.085Z,-3.46
2023-02-28T05:42:45.092Z,-3.41
2023-02-28T05:45:15.665Z,-3.44
2023-02-28T05:47:43.480Z,-3.46
2023-02-28T05:50:13.317Z,-3.52
2023-02-28T05:52:41.038Z,-3.56
2023-02-28T05:55:09.694Z,-3.70
2023-02-28T05:57:37.330Z,-3.61
2023-02-28T06:00:05.944Z,-3.40
2023-02-28T06:02:33.673Z,-3.53
2023-02-28T06:05:01.360Z,-3.59
2023-02-28T06:07:30.393Z,-3.40
2023-02-28T06:09:58.070Z,-3.55
2023-02-28T06:12:25.757Z,-3.62
2023-02-28T06:14:53.425Z,-3.56
2023-02-28T06:17:21.083Z,-3.58
2023-02-28T06:19:49.073Z,-3.54
2023-02-28T06:22:16.751Z,-3.46
2023-02-28T06:24:45.909Z,-3.59
2023-02-28T06:27:13.550Z,-3.49
2023-02-28T06:29:41.625Z,-3.43
2023-02-28T06:32:09.323Z,-3.46
2023-02-28T06:34:37.883Z,-3.47
2023-02-28T06:37:05.533Z,-3.50
2023-02-28T06:39:33.530Z,-3.47
2023-02-28T06:42:02.738Z,-3.41
2023-02-28T06:44:36.488Z,-3.34
2023-02-28T06:47:05.332Z,-3.30
2023-02-28T06:49:33.795Z,-3.31
2023-02-28T06:52:01.471Z,-3.28
2023-02-28T06:54:29.290Z,-3.21
2023-02-28T06:56:56.925Z,-3.05
2023-02-28T06:59:26.028Z,-2.91
2023-02-28T07:01:54.095Z,-2.76
2023-02-28T07:04:21.811Z,-2.65
2023-02-28T07:06:49.517Z,-2.50
2023-02-28T07:09:17.200Z,-2.58
2023-02-28T07:11:44.995Z,-2.49
2023-02-28T07:14:12.623Z,-2.38
2023-02-28T07:16:41.645Z,-2.25
2023-02-28T07:19:09.307Z,-2.26
2023-02-28T07:21:36.958Z,-2.18
2023-02-28T07:24:04.894Z,-2.00
2023-02-28T07:26:35.053Z,-1.95
2023-02-28T07:29:03.216Z,-1.92
2023-02-28T07:31:31.396Z,-1.85
2023-02-28T07:34:00.665Z,-1.28
2023-02-28T07:36:28.481Z,-1.47
2023-02-28T07:38:56.199Z,-1.34
2023-02-28T07:41:25.797Z,-1.28
2023-02-28T07:43:55.796Z,-1.31
2023-02-28T07:46:23.518Z,-1.18
2023-02-28T07:48:51.381Z,-1.16
2023-02-28T07:51:20.742Z,-1.02
2023-02-28T07:53:48.365Z,-0.88
2023-02-28T07:56:16.032Z,-0.70
2023-02-28T07:58:43.683Z,-0.67
2023-02-28T08:01:13.015Z,-0.44
2023-02-28T08:03:41.502Z,-0.17
2023-02-28T08:06:11.163Z,-0.09
2023-02-28T08:08:40.216Z,-0.04
2023-02-28T08:11:07.923Z,-0.18
2023-02-28T08:13:35.605Z,-0.06
2023-02-28T08:16:04.509Z,0.01
2023-02-28T08:18:32.233Z,0.08
2023-02-28T08:21:00.240Z,0.16
2023-02-28T08:23:27.941Z,0.12
2023-02-28T08:25:57.840Z,0.18
2023-02-28T08:28:27.445Z,0.37
2023-02-28T08:30:55.783Z,0.24
2023-02-28T08:33:23.898Z,0.17
2023-02-28T08:35:54.881Z,0.25
2023-02-28T08:38:22.714Z,0.28
2023-02-28T08:40:50.493Z,0.32
2023-02-28T08:43:19.549Z,0.34
2023-02-28T08:45:47.194Z,0.41
2023-02-28T08:48:14.826Z,0.54
2023-02-28T08:50:43.077Z,0.57
2023-02-28T08:53:11.621Z,0.75
2023-02-28T08:55:39.283Z,0.96
2023-02-28T08:58:06.892Z,1.39
2023-02-28T09:00:37.662Z,1.05
2023-02-28T09:03:06.552Z,1.20
2023-02-28T09:05:34.208Z,1.75
2023-02-28T09:08:01.807Z,1.41
2023-02-28T09:10:29.497Z,2.11
2023-02-28T09:12:57.284Z,1.54
2023-02-28T09:15:24.990Z,1.55
2023-02-28T09:17:54.064Z,1.51
2023-02-28T09:20:21.836Z,1.73
2023-02-28T09:22:49.653Z,1.86
2023-02-28T09:25:17.659Z,1.69
2023-02-28T09:27:46.567Z,2.11
2023-02-28T09:30:15.549Z,2.13
2023-02-28T09:32:43.451Z,2.17
2023-02-28T09:35:15.468Z,2.41
2023-02-28T09:37:43.159Z,2.80
2023-02-28T09:40:12.255Z,2.80
2023-02-28T09:42:41.281Z,2.88
2023-02-28T09:45:26.758Z,3.00
2023-02-28T09:47:57.015Z,3.40
2023-02-28T09:50:34.000Z,2.93
2023-02-28T09:53:04.565Z,3.05
2023-02-28T09:55:41.624Z,3.43
2023-02-28T09:58:20.870Z,3.50
2023-02-28T10:00:53.671Z,3.62
2023-02-28T10:03:28.395Z,3.37
2023-02-28T10:06:04.648Z,3.64
2023-02-28T10:08:36.079Z,3.75
2023-02-28T10:11:05.594Z,4.09
2023-02-28T10:13:37.030Z,4.21
2023-02-28T10:16:08.400Z,4.08
2023-02-28T10:18:45.212Z,3.74
2023-02-28T10:21:21.213Z,4.02
2023-02-28T10:23:50.046Z,4.26
2023-02-28T10:26:19.895Z,4.05
2023-02-28T10:28:47.830Z,4.38
2023-02-28T10:31:18.859Z,4.19
2023-02-28T10:33:46.860Z,4.39
2023-02-28T10:36:18.402Z,4.34
2023-02-28T10:38:47.583Z,4.44
2023-02-28T10:41:17.357Z,4.44
2023-02-28T10:43:46.203Z,4.33
2023-02-28T10:46:27.271Z,4.49
2023-02-28T10:49:04.967Z,4.50
2023-02-28T10:51:42.342Z,4.71
2023-02-28T10:54:17.730Z,4.50
2023-02-28T10:56:45.580Z,4.81
2023-02-28T10:59:29.873Z,4.72
2023-02-28T11:01:57.920Z,4.79
2023-02-28T11:04:39.963Z,4.89
2023-02-28T11:07:21.604Z,4.77
2023-02-28T11:09:53.017Z,5.21
2023-02-28T11:12:26.567Z,5.10
2023-02-28T11:14:57.403Z,5.18
2023-02-28T11:17:27.423Z,4.91
2023-02-28T11:19:57.581Z,4.81
2023-02-28T11:22:29.830Z,5.05
2023-02-28T11:25:01.207Z,5.25
2023-02-28T11:27:47.926Z,5.31
2023-02-28T11:30:26.663Z,5.69
2023-02-28T11:32:54.550Z,5.44
2023-02-28T11:35:27.039Z,5.48
2023-02-28T11:37:59.759Z,5.53
2023-02-28T11:40:33.976Z,5.40
2023-02-28T11:43:11.131Z,5.76
2023-02-28T11:45:47.112Z,5.73
2023-02-28T11:48:20.996Z,5.44
2023-02-28T11:50:58.384Z,5.95
2023-02-28T11:53:42.162Z,6.06
2023-02-28T11:56:13.478Z,6.39
2023-02-28T11:58:50.547Z,6.47
2023-02-28T12:01:26.945Z,6.25
2023-02-28T12:04:01.929Z,5.73
2023-02-28T12:06:35.259Z,5.62
2023-02-28T12:09:16.073Z,5.87
2023-02-28T12:11:54.419Z,6.24
2023-02-28T12:14:49.185Z,6.15
2023-02-28T12:17:26.393Z,5.94
2023-02-28T12:20:01.144Z,6.16
2023-02-28T12:22:33.054Z,6.11
2023-02-28T12:25:18.799Z,5.96
2023-02-28T12:27:48.892Z,6.28
2023-02-28T12:30:19.908Z,6.31
2023-02-28T12:32:49.736Z,6.39
2023-02-28T12:35:20.645Z,6.35
2023-02-28T12:37:53.004Z,6.48
2023-02-28T12:40:23.865Z,6.44
2023-02-28T12:42:54.195Z,6.23
2023-02-28T12:45:23.239Z,5.98
2023-02-28T12:47:53.614Z,6.10
2023-02-28T12:50:22.249Z,6.15
2023-02-28T12:52:54.463Z,6.46
2023-02-28T12:55:28.288Z,6.37
2023-02-28T12:58:03.929Z,6.70
2023-02-28T13:00:36.853Z,7.07
2023-02-28T13:03:19.754Z,7.10
2023-02-28T13:06:05.744Z,6.87
2023-02-28T13:08:49.880Z,7.19
2023-02-28T13:11:28.085Z,7.31
2023-02-28T13:14:01.218Z,7.61
2023-02-28T13:16:29.057Z,6.92
2023-02-28T13:19:11.446Z,7.06
2023-02-28T13:21:46.184Z,7.34
2023-02-28T13:24:47.504Z,6.85
2023-02-28T13:27:40.021Z,7.71
2023-02-28T13:30:45.086Z,7.52
2023-02-28T13:33:28.274Z,7.65
2023-02-28T13:36:09.550Z,7.62
2023-02-28T13:38:43.317Z,8.04
2023-02-28T13:41:46.233Z,8.11
2023-02-28T13:44:17.422Z,8.72
2023-02-28T13:47:26.852Z,8.67
2023-02-28T13:49:55.334Z,10.23
2023-02-28T13:52:26.394Z,9.69
2023-02-28T13:55:17.241Z,11.40
2023-02-28T13:57:56.367Z,11.56
2023-02-28T14:00:38.036Z,11.01
2023-02-28T14:03:14.096Z,10.33
2023-02-28T14:05:42.277Z,9.82
2023-02-28T14:08:16.554Z,9.72
2023-02-28T14:10:46.660Z,9.48
2023-02-28T14:13:32.138Z,9.01
2023-02-28T14:16:02.616Z,10.49
2023-02-28T14:18:33.608Z,9.56
2023-02-28T14:21:13.514Z,9.58
2023-02-28T14:24:12.258Z,10.09
2023-02-28T14:26:58.412Z,9.58
2023-02-28T14:29:36.541Z,11.09
2023-02-28T14:32:08.790Z,10.05
2023-02-28T14:34:45.105Z,10.34
2023-02-28T14:37:17.817Z,9.34
2023-02-28T14:39:46.045Z,10.48
2023-02-28T14:42:34.230Z,9.89
2023-02-28T14:45:03.000Z,10.60
2023-02-28T14:47:34.244Z,10.97
2023-02-28T14:50:04.936Z,10.92
2023-02-28T14:52:33.853Z,10.88
2023-02-28T14:55:03.259Z,10.71
2023-02-28T14:57:33.179Z,12.35
2023-02-28T15:00:05.260Z,10.36
2023-02-28T15:02:36.901Z,10.28
2023-02-28T15:05:21.722Z,10.24
2023-02-28T15:07:50.945Z,10.10
2023-02-28T15:10:20.918Z,9.63
2023-02-28T15:12:54.816Z,9.99
2023-02-28T15:15:31.760Z,9.38
2023-02-28T15:18:10.633Z,11.27
2023-02-28T15:20:41.179Z,10.38
2023-02-28T15:23:08.952Z,11.05
2023-02-28T15:25:36.904Z,9.56
2023-02-28T15:28:04.872Z,10.67
2023-02-28T15:30:33.685Z,9.73
2023-02-28T15:33:12.476Z,9.32
2023-02-28T15:35:40.512Z,9.19
2023-02-28T15:38:18.019Z,9.43
2023-02-28T15:40:54.773Z,9.46
2023-02-28T15:43:28.718Z,8.51
2023-02-28T15:46:00.358Z,8.97
2023-02-28T15:48:31.629Z,7.12
2023-02-28T15:51:04.542Z,6.50
2023-02-28T15:53:34.636Z,6.19
2023-02-28T15:56:04.219Z,5.82
2023-02-28T15:58:32.755Z,5.59
2023-02-28T16:01:17.548Z,5.69
2023-02-28T16:03:48.722Z,5.43
2023-02-28T16:06:36.498Z,5.40
2023-02-28T16:09:05.413Z,5.01
2023-02-28T16:11:35.138Z,4.95
2023-02-28T16:14:04.094Z,4.89
2023-02-28T16:16:33.257Z,4.81
2023-02-28T16:19:02.326Z,5.06
2023-02-28T16:21:30.303Z,4.55
2023-02-28T16:23:58.224Z,4.72
2023-02-28T16:26:28.427Z,4.43
2023-02-28T16:28:56.794Z,4.14
2023-02-28T16:31:24.544Z,4.02
2023-02-28T16:33:52.291Z,3.92
2023-02-28T16:36:24.177Z,4.00
2023-02-28T16:38:51.846Z,3.72
2023-02-28T16:41:21.548Z,3.73
2023-02-28T16:43:50.772Z,3.56
2023-02-28T16:46:19.205Z,3.31
2023-02-28T16:48:47.950Z,3.22
2023-02-28T16:51:16.575Z,3.02
2023-02-28T16:53:46.252Z,3.33
2023-02-28T16:56:17.543Z,3.47
2023-02-28T16:58:45.398Z,2.96
2023-02-28T17:01:13.309Z,2.81
2023-02-28T17:03:41.324Z,2.66
2023-02-28T17:06:19.243Z,2.48
2023-02-28T17:08:48.351Z,2.40
2023-02-28T17:11:16.097Z,2.28
2023-02-28T17:13:43.722Z,2.46
2023-02-28T17:16:20.415Z,2.61
2023-02-28T17:18:48.105Z,2.60
2023-02-28T17:21:16.558Z,2.19
2023-02-28T17:23:44.354Z,2.10
2023-02-28T17:26:16.457Z,2.03
2023-02-28T17:28:44.107Z,1.87
2023-02-28T17:31:11.838Z,1.72
2023-02-28T17:33:39.600Z,1.59
2023-02-28T17:36:08.617Z,1.66
2023-02-28T17:38:36.299Z,1.32
2023-02-28T17:41:03.975Z,1.19
2023-02-28T17:43:33.035Z,0.85
2023-02-28T17:46:00.692Z,1.03
2023-02-28T17:48:28.636Z,1.05
2023-02-28T17:50:56.455Z,1.10
2023-02-28T17:53:24.488Z,1.04
2023-02-28T17:55:52.228Z,0.90
2023-02-28T17:58:20.569Z,0.77
2023-02-28T18:00:54.659Z,0.77
2023-02-28T18:03:23.169Z,0.80
2023-02-28T18:05:51.058Z,0.61
2023-02-28T18:08:19.190Z,0.38
2023-02-28T18:10:47.299Z,0.43
2023-02-28T18:13:15.095Z,0.50
2023-02-28T18:15:42.727Z,0.60
2023-02-28T18:18:11.914Z,0.69
2023-02-28T18:20:39.541Z,0.47
2023-02-28T18:23:07.236Z,0.33
2023-02-28T18:25:34.983Z,0.42
2023-02-28T18:28:02.732Z,0.48
2023-02-28T18:30:32.999Z,0.69
2023-02-28T18:33:01.702Z,0.77
2023-02-28T18:35:39.556Z,1.33
2023-02-28T18:38:10.255Z,1.15
2023-02-28T18:40:38.040Z,0.99
2023-02-28T18:43:06.075Z,0.92
2023-02-28T18:45:36.978Z,1.22
2023-02-28T18:48:04.646Z,0.88
2023-02-28T18:50:33.790Z,0.63
2023-02-28T18:53:03.336Z,0.51
2023-02-28T18:55:32.995Z,0.37
2023-02-28T18:58:00.742Z,0.31
2023-02-28T19:00:28.620Z,0.16
2023-02-28T19:02:56.481Z,0.09
2023-02-28T19:05:24.421Z,-0.07
2023-02-28T19:07:53.541Z,-0.21
2023-02-28T19:10:21.391Z,-0.27
2023-02-28T19:12:49.173Z,-0.33
2023-02-28T19:15:16.924Z,-0.27
2023-02-28T19:17:46.564Z,-0.32
2023-02-28T19:20:14.993Z,-0.20
2023-02-28T19:22:44.274Z,-0.37
2023-02-28T19:25:13.590Z,-0.37
2023-02-28T19:27:41.217Z,-0.28
2023-02-28T19:30:10.241Z,-0.39
2023-02-28T19:32:38.390Z,-0.48
2023-02-28T19:35:06.587Z,-0.59
2023-02-28T19:37:34.212Z,-0.61
2023-02-28T19:40:02.565Z,-0.49
2023-02-28T19:42:33.331Z,-0.49
2023-02-28T19:45:01.447Z,-0.48
2023-02-28T19:47:30.736Z,-0.58
2023-02-28T19:49:58.464Z,-0.81
2023-02-28T19:52:26.339Z,-0.78
2023-02-28T19:54:54.081Z,-0.80
2023-02-28T19:57:21.778Z,-0.87
2023-02-28T19:59:51.983Z,-0.84
2023-02-28T20:02:21.491Z,-0.90
2023-02-28T20:04:49.901Z,-0.97
2023-02-28T20:07:17.876Z,-1.12
2023-02-28T20:09:45.887Z,-1.16
2023-02-28T20:12:23.581Z,-1.23
2023-02-28T20:14:56.003Z,-1.22
2023-02-28T20:17:24.129Z,-1.09
2023-02-28T20:19:51.758Z,-1.06
2023-02-28T20:22:19.417Z,-1.23
2023-02-28T20:24:48.090Z,-1.19
2023-02-28T20:27:15.872Z,-1.09
2023-02-28T20:29:43.629Z,-1.16
2023-02-28T20:32:13.236Z,-1.15
2023-02-28T20:34:41.042Z,-1.07
2023-02-28T20:37:08.721Z,-1.19
2023-02-28T20:39:36.450Z,-1.24
2023-02-28T20:42:04.646Z,-1.33
2023-02-28T20:44:32.262Z,-1.39
2023-02-28T20:47:00.804Z,-1.38
2023-02-28T20:49:30.212Z,-1.34
2023-02-28T20:51:57.847Z,-1.46
2023-02-28T20:54:25.753Z,-1.41
2023-02-28T20:56:53.572Z,-1.35
2023-02-28T20:59:22.300Z,-1.57
2023-02-28T21:01:50.219Z,-1.57
2023-02-28T21:04:17.990Z,-1.35
2023-02-28T21:06:47.601Z,-1.37
2023-02-28T21:09:16.155Z,-1.51
2023-02-28T21:11:43.813Z,-1.42
2023-02-28T21:14:14.833Z,-1.51
2023-02-28T21:16:44.335Z,-1.58
2023-02-28T21:19:12.487Z,-1.64
2023-02-28T21:21:44.016Z,-1.67
2023-02-28T21:24:14.203Z,-1.74
2023-02-28T21:26:42.911Z,-1.70
2023-02-28T21:29:10.549Z,-1.63
2023-02-28T21:31:39.183Z,-1.75
2023-02-28T21:34:09.459Z,-1.78
2023-02-28T21:36:39.659Z,-1.91
2023-02-28T21:39:09.812Z,-1.92
2023-02-28T21:41:39.093Z,-1.81
2023-02-28T21:44:07.064Z,-1.71
2023-02-28T21:46:35.336Z,-1.82
2023-02-28T21:49:03.151Z,-1.86
2023-02-28T21:51:32.225Z,-1.90
2023-02-28T21:54:01.140Z,-1.95
2023-02-28T21:56:32.587Z,-1.92
2023-02-28T21:59:02.167Z,-2.10
2023-02-28T22:01:31.376Z,-2.04
2023-02-28T22:04:00.083Z,-1.92
2023-02-28T22:06:29.711Z,-1.89
2023-02-28T22:08:59.763Z,-1.90
2023-02-28T22:11:27.473Z,-1.75
2023-02-28T22:13:56.330Z,-1.81
2023-02-28T22:16:28.146Z,-2.05
2023-02-28T22:18:57.092Z,-1.98
2023-02-28T22:21:26.126Z,-2.03
2023-02-28T22:23:53.999Z,-1.66
2023-02-28T22:26:23.145Z,-1.75
2023-02-28T22:28:51.510Z,-2.10
2023-02-28T22:31:20.642Z,-1.89
2023-02-28T22:33:50.120Z,-1.87
2023-02-28T22:36:19.983Z,-2.09
2023-02-28T22:38:48.963Z,-2.32
2023-02-28T22:41:16.639Z,-2.27
2023-02-28T22:43:44.684Z,-2.39
2023-02-28T22:46:14.210Z,-2.49
2023-02-28T22:48:43.835Z,-2.44
2023-02-28T22:51:15.047Z,-2.43
2023-02-28T22:53:44.540Z,-2.35
2023-02-28T22:56:13.817Z,-2.42
2023-02-28T22:58:41.823Z,-2.30
2023-02-28T23:01:11.437Z,-2.44
2023-02-28T23:03:40.115Z,-1.99
2023-02-28T23:06:15.281Z,-2.20
2023-02-28T23:08:43.595Z,-2.32
2023-02-28T23:11:12.087Z,-2.33
2023-02-28T23:13:39.744Z,-2.44
2023-02-28T23:16:08.485Z,-2.47
2023-02-28T23:18:36.380Z,-2.45
2023-02-28T23:21:04.129Z,-2.34
2023-02-28T23:23:33.360Z,-2.51
2023-02-28T23:26:01.019Z,-2.28
2023-02-28T23:28:28.700Z,-2.33
2023-02-28T23:30:56.372Z,-2.44
2023-02-28T23:33:26.360Z,-2.41
2023-02-28T23:35:54.175Z,-2.51
2023-02-28T23:38:22.138Z,-2.53
2023-02-28T23:40:51.194Z,-2.63
2023-02-28T23:43:19.622Z,-2.81
2023-02-28T23:45:56.083Z,-2.54
2023-02-28T23:48:24.187Z,-2.67
2023-02-28T23:50:51.979Z,-2.42
2023-02-28T23:53:19.812Z,-2.62
2023-02-28T23:55:48.444Z,-2.54
2023-02-28T23:58:17.635Z,-2.77
